Time;durP1;ratioP1;P1;durP2;ratioP2;P2;SDS_P1;SDS_P2;PMS_P1;PMS_P2;Temp;Humidity;BMP_temperature;BMP_pressure;BME280_temperature;BME280_humidity;BME280_pressure;Samples;Min_cycle;Max_cycle;Signal;HPM_P1;HPM_P2
2022/03/11 00:01:55;;;;;;;2.25;1.60;;;8.30;95.10;;;;;;5062688;28;20213;-62
2022/03/11 00:04:23;;;;;;;1.60;1.50;;;8.20;95.10;;;;;;5060482;28;20219;-64
2022/03/11 00:06:50;;;;;;;1.60;1.50;;;8.10;95.20;;;;;;5059908;28;20200;-64
2022/03/11 00:09:17;;;;;;;1.70;1.60;;;8.00;95.60;;;;;;5055578;28;20222;-62
2022/03/11 00:11:44;;;;;;;1.42;1.42;;;8.00;95.60;;;;;;5058283;28;20645;-63
2022/03/11 00:14:11;;;;;;;1.60;1.50;;;8.00;95.60;;;;;;5058830;28;20565;-63
2022/03/11 00:16:38;;;;;;;1.40;1.30;;;7.90;96.00;;;;;;5060193;28;20310;-63
2022/03/11 00:19:05;;;;;;;1.73;1.67;;;7.80;96.30;;;;;;5057712;28;20208;-62
2022/03/11 00:21:34;;;;;;;1.40;1.30;;;7.60;96.60;;;;;;5056850;28;20269;-62
2022/03/11 00:24:01;;;;;;;1.30;1.30;;;7.50;96.90;;;;;;5055425;28;20211;-64
2022/03/11 00:26:28;;;;;;;1.60;1.50;;;7.30;97.00;;;;;;5056084;28;20216;-63
2022/03/11 00:28:54;;;;;;;1.13;1.13;;;7.20;97.20;;;;;;5059922;28;20283;-62
2022/03/11 00:31:21;;;;;;;1.60;1.50;;;7.20;97.40;;;;;;5052761;28;20628;-62
2022/03/11 00:33:48;;;;;;;1.60;1.50;;;7.10;97.50;;;;;;5056259;28;20286;-63
2022/03/11 00:36:15;;;;;;;1.38;1.27;;;7.00;97.70;;;;;;5057021;28;20842;-63
2022/03/11 00:38:43;;;;;;;1.50;1.40;;;6.90;97.70;;;;;;5058454;28;20645;-61
2022/03/11 00:41:11;;;;;;;1.60;1.50;;;6.80;97.80;;;;;;5054773;28;20294;-62
2022/03/11 00:43:38;;;;;;;1.67;1.58;;;6.80;98.00;;;;;;5052722;28;20250;-63
2022/03/11 00:46:05;;;;;;;1.48;1.40;;;6.70;98.10;;;;;;5055555;28;20219;-63
2022/03/11 00:48:32;;;;;;;1.23;1.23;;;6.70;98.20;;;;;;5057754;28;20201;-62
2022/03/11 00:50:59;;;;;;;1.30;1.25;;;6.70;98.20;;;;;;5053690;28;20210;-63
2022/03/11 00:53:27;;;;;;;1.23;1.23;;;6.60;98.20;;;;;;5051300;28;20204;-62
2022/03/11 00:55:55;;;;;;;1.42;1.35;;;6.60;98.40;;;;;;5056742;28;20219;-63
2022/03/11 00:58:22;;;;;;;1.33;1.33;;;6.70;98.60;;;;;;5058471;28;20681;-62
2022/03/11 01:00:49;;;;;;;1.30;1.30;;;6.60;98.60;;;;;;5057114;28;20768;-63
2022/03/11 01:03:16;;;;;;;1.48;1.40;;;6.60;98.60;;;;;;5057998;28;20289;-63
2022/03/11 01:05:43;;;;;;;1.50;1.50;;;6.60;98.60;;;;;;5058073;28;20314;-64
2022/03/11 01:08:10;;;;;;;1.40;1.40;;;6.70;98.70;;;;;;5060824;28;20204;-64
2022/03/11 01:10:38;;;;;;;1.55;1.55;;;6.70;98.80;;;;;;5057902;28;20206;-62
2022/03/11 01:13:08;;;;;;;1.70;1.60;;;6.60;98.70;;;;;;5057034;28;20289;-61
2022/03/11 01:15:35;;;;;;;1.30;1.30;;;6.60;98.80;;;;;;5058674;28;21792;-64
2022/03/11 01:18:02;;;;;;;1.77;1.67;;;6.50;98.90;;;;;;5054010;28;20339;-63
2022/03/11 01:20:29;;;;;;;1.60;1.50;;;6.50;98.90;;;;;;5068711;28;20206;-62
2022/03/11 01:22:55;;;;;;;1.70;1.60;;;6.40;98.90;;;;;;5071261;28;20584;-62
2022/03/11 01:25:22;;;;;;;1.30;1.30;;;6.30;99.10;;;;;;5052267;28;20235;-62
2022/03/11 01:27:49;;;;;;;1.35;1.35;;;6.20;99.20;;;;;;5071268;28;20282;-62
2022/03/11 01:30:17;;;;;;;1.70;1.60;;;6.20;99.40;;;;;;5071317;28;20296;-62
2022/03/11 01:32:44;;;;;;;1.60;1.50;;;6.10;99.70;;;;;;5071102;28;20199;-63
2022/03/11 01:35:12;;;;;;;1.35;1.33;;;6.00;99.60;;;;;;5058791;28;20224;-62
2022/03/11 01:37:39;;;;;;;1.30;1.30;;;5.90;99.80;;;;;;5057081;28;21647;-62
2022/03/11 01:40:07;;;;;;;1.30;1.30;;;5.90;99.90;;;;;;5054477;28;20200;-62
2022/03/11 01:42:36;;;;;;;1.50;1.50;;;5.90;99.90;;;;;;5062185;28;20202;-61
2022/03/11 01:45:05;;;;;;;1.55;1.45;;;5.80;99.90;;;;;;5057261;28;20224;-62
2022/03/11 01:47:33;;;;;;;1.27;1.27;;;5.80;99.90;;;;;;5055703;28;20676;-61
2022/03/11 01:50:00;;;;;;;1.45;1.42;;;5.70;99.90;;;;;;5060331;28;20257;-62
2022/03/11 01:52:28;;;;;;;1.45;1.38;;;5.70;99.90;;;;;;5055019;28;20204;-63
2022/03/11 01:54:56;;;;;;;1.33;1.33;;;5.60;99.90;;;;;;5055049;28;20246;-63
2022/03/11 01:57:24;;;;;;;1.60;1.50;;;5.50;99.90;;;;;;5058805;28;20310;-62
2022/03/11 01:59:51;;;;;;;1.80;1.70;;;5.50;99.90;;;;;;5068634;28;20272;-62
2022/03/11 02:02:18;;;;;;;1.55;1.50;;;5.50;99.90;;;;;;5055435;28;20196;-62
2022/03/11 02:04:46;;;;;;;1.52;1.45;;;5.40;99.90;;;;;;5055533;28;20219;-61
2022/03/11 02:07:13;;;;;;;1.60;1.50;;;5.40;99.90;;;;;;5053628;28;20223;-61
2022/03/11 02:09:40;;;;;;;1.50;1.48;;;5.40;99.90;;;;;;5060205;28;20312;-62
2022/03/11 02:12:08;;;;;;;1.40;1.40;;;5.30;99.90;;;;;;5059085;28;20235;-61
2022/03/11 02:14:35;;;;;;;1.45;1.45;;;5.30;99.90;;;;;;5057769;28;20224;-62
2022/03/11 02:17:02;;;;;;;1.60;1.50;;;5.30;99.90;;;;;;5059323;28;20311;-63
2022/03/11 02:19:28;;;;;;;1.50;1.40;;;5.30;99.90;;;;;;5067152;28;20640;-62
2022/03/11 02:21:59;;;;;;;1.40;1.40;;;5.20;99.90;;;;;;5064153;28;20294;-61
2022/03/11 02:24:28;;;;;;;1.52;1.42;;;5.20;99.90;;;;;;5059601;28;20250;-61
2022/03/11 02:26:55;;;;;;;1.35;1.35;;;5.20;99.90;;;;;;5058090;28;20204;-61
2022/03/11 02:29:22;;;;;;;1.33;1.33;;;5.10;99.90;;;;;;5057503;28;20725;-63
2022/03/11 02:31:49;;;;;;;1.80;1.70;;;5.10;99.90;;;;;;5073402;28;20301;-61
2022/03/11 02:34:16;;;;;;;1.40;1.40;;;5.00;99.90;;;;;;5074118;28;20330;-62
2022/03/11 02:36:43;;;;;;;1.40;1.40;;;5.00;99.90;;;;;;5074329;28;20203;-63
2022/03/11 02:39:10;;;;;;;1.40;1.40;;;5.00;99.90;;;;;;5073687;28;20685;-62
2022/03/11 02:41:41;;;;;;;1.60;1.50;;;4.90;99.90;;;;;;5068675;28;20295;-63
2022/03/11 02:44:08;;;;;;;1.55;1.45;;;4.90;99.90;;;;;;5069186;28;20221;-63
2022/03/11 02:46:35;;;;;;;1.33;1.33;;;4.90;99.90;;;;;;5070332;28;20203;-63
2022/03/11 02:49:03;;;;;;;1.50;1.40;;;4.90;99.90;;;;;;5053247;28;20227;-62
2022/03/11 02:51:30;;;;;;;1.40;1.30;;;4.80;99.90;;;;;;5058534;28;20208;-62
2022/03/11 02:53:57;;;;;;;1.55;1.42;;;4.80;99.90;;;;;;5060712;28;20204;-62
2022/03/11 02:56:25;;;;;;;1.70;1.60;;;4.80;99.90;;;;;;5055357;28;20236;-63
2022/03/11 02:58:53;;;;;;;1.40;1.30;;;4.80;99.90;;;;;;5054590;28;20542;-62
2022/03/11 03:01:20;;;;;;;1.38;1.38;;;4.70;99.90;;;;;;5054015;28;20208;-62
2022/03/11 03:03:47;;;;;;;1.55;1.50;;;4.70;99.90;;;;;;5053905;28;20386;-62
2022/03/11 03:06:14;;;;;;;1.50;1.40;;;4.60;99.90;;;;;;5053779;28;20234;-63
2022/03/11 03:08:40;;;;;;;1.73;1.63;;;4.60;99.90;;;;;;5053991;28;20301;-63
2022/03/11 03:11:07;;;;;;;1.60;1.50;;;4.60;99.90;;;;;;5053804;28;20251;-63
2022/03/11 03:13:35;;;;;;;1.63;1.52;;;4.60;99.90;;;;;;5054033;28;20287;-63
2022/03/11 03:16:03;;;;;;;1.55;1.45;;;4.50;99.90;;;;;;5057249;28;20231;-63
2022/03/11 03:18:30;;;;;;;1.60;1.50;;;4.50;99.90;;;;;;5058615;28;20220;-63
2022/03/11 03:20:57;;;;;;;1.60;1.50;;;4.40;99.90;;;;;;5057848;28;20304;-62
2022/03/11 03:23:25;;;;;;;1.40;1.40;;;4.50;99.90;;;;;;5058555;28;20298;-63
2022/03/11 03:25:53;;;;;;;1.50;1.50;;;4.30;99.90;;;;;;5054505;28;20327;-62
2022/03/11 03:28:20;;;;;;;1.30;1.30;;;4.40;99.90;;;;;;5053786;28;20210;-60
2022/03/11 03:30:47;;;;;;;1.90;1.80;;;4.30;99.90;;;;;;5053537;28;20287;-63
2022/03/11 03:33:15;;;;;;;1.50;1.50;;;4.30;99.90;;;;;;5053442;28;20232;-61
2022/03/11 03:35:42;;;;;;;1.25;1.25;;;4.30;99.90;;;;;;5053304;28;20747;-62
2022/03/11 03:38:09;;;;;;;1.65;1.55;;;4.30;99.90;;;;;;5053811;28;20249;-62
2022/03/11 03:40:36;;;;;;;1.67;1.58;;;4.30;99.90;;;;;;5053530;28;20253;-61
2022/03/11 03:43:03;;;;;;;1.70;1.60;;;4.20;99.90;;;;;;5053130;28;20239;-63
2022/03/11 03:45:30;;;;;;;1.40;1.30;;;4.30;99.90;;;;;;5053255;28;20238;-63
2022/03/11 03:47:58;;;;;;;1.20;1.20;;;4.30;99.90;;;;;;5053271;28;20296;-61
2022/03/11 03:50:27;;;;;;;1.30;1.30;;;4.30;99.90;;;;;;5053344;28;20269;-61
2022/03/11 03:52:54;;;;;;;1.60;1.50;;;4.30;99.90;;;;;;5058109;28;20214;-62
2022/03/11 03:55:20;;;;;;;1.40;1.40;;;4.30;99.90;;;;;;5054161;28;20308;-63
2022/03/11 03:57:47;;;;;;;1.27;1.27;;;4.20;99.90;;;;;;5053401;28;20227;-63
2022/03/11 04:00:15;;;;;;;1.70;1.60;;;4.20;99.90;;;;;;5053145;28;20330;-61
2022/03/11 04:02:46;;;;;;;1.60;1.50;;;4.20;99.90;;;;;;5052460;28;20239;-62
2022/03/11 04:05:13;;;;;;;1.77;1.67;;;4.20;99.90;;;;;;5052961;28;20311;-61
2022/03/11 04:07:42;;;;;;;1.40;1.40;;;4.20;99.90;;;;;;5052420;28;20200;-63
2022/03/11 04:10:10;;;;;;;1.40;1.40;;;4.20;99.90;;;;;;5052638;28;20204;-61
2022/03/11 04:12:37;;;;;;;1.60;1.50;;;4.20;99.90;;;;;;5052108;28;20295;-62
2022/03/11 04:15:05;;;;;;;1.60;1.50;;;4.20;99.90;;;;;;5051853;28;20232;-62
2022/03/11 04:17:32;;;;;;;1.45;1.40;;;4.10;99.90;;;;;;5052393;28;20223;-62
2022/03/11 04:19:59;;;;;;;1.40;1.40;;;4.10;99.90;;;;;;5052563;28;20560;-62
2022/03/11 04:22:26;;;;;;;1.60;1.50;;;4.10;99.90;;;;;;5052202;28;20299;-61
2022/03/11 04:24:55;;;;;;;1.40;1.30;;;4.10;99.90;;;;;;5052159;28;20243;-61
2022/03/11 04:27:22;;;;;;;1.20;1.20;;;4.20;99.90;;;;;;5052540;28;20291;-62
2022/03/11 04:29:49;;;;;;;1.30;1.30;;;4.30;99.90;;;;;;5052433;28;20208;-63
2022/03/11 04:32:16;;;;;;;1.40;1.40;;;4.30;99.90;;;;;;5052728;28;20235;-63
2022/03/11 04:34:42;;;;;;;1.45;1.40;;;4.30;99.90;;;;;;5052234;28;20230;-63
2022/03/11 04:37:09;;;;;;;1.60;1.50;;;4.20;99.90;;;;;;5055781;28;20708;-61
2022/03/11 04:39:36;;;;;;;1.60;1.50;;;4.20;99.90;;;;;;5062920;28;20231;-63
2022/03/11 04:42:06;;;;;;;1.55;1.48;;;4.10;99.90;;;;;;5062572;28;20203;-61
2022/03/11 04:44:34;;;;;;;1.58;1.48;;;4.10;99.90;;;;;;5061065;28;20232;-64
2022/03/11 04:47:01;;;;;;;1.40;1.40;;;4.10;99.90;;;;;;5052541;28;20218;-62
2022/03/11 04:49:28;;;;;;;1.35;1.35;;;4.10;99.90;;;;;;5052518;28;20697;-61
2022/03/11 04:51:55;;;;;;;1.58;1.48;;;4.10;99.90;;;;;;5051419;28;20689;-61
2022/03/11 04:54:22;;;;;;;1.60;1.50;;;4.10;99.90;;;;;;5052304;28;20301;-63
2022/03/11 04:56:49;;;;;;;1.60;1.50;;;4.00;99.90;;;;;;5052138;28;20406;-62
2022/03/11 04:59:17;;;;;;;1.30;1.30;;;4.00;99.90;;;;;;5052153;28;20234;-63
2022/03/11 05:01:44;;;;;;;1.60;1.50;;;4.00;99.90;;;;;;5051925;28;20298;-62
2022/03/11 05:04:11;;;;;;;1.48;1.38;;;3.90;99.90;;;;;;5051086;28;20537;-62
2022/03/11 05:06:38;;;;;;;1.30;1.30;;;3.90;99.90;;;;;;5054080;28;20230;-62
2022/03/11 05:09:05;;;;;;;1.40;1.40;;;3.90;99.90;;;;;;5055096;28;20242;-61
2022/03/11 05:11:31;;;;;;;1.38;1.38;;;3.90;99.90;;;;;;5055014;28;20291;-61
2022/03/11 05:13:58;;;;;;;1.70;1.60;;;3.80;99.90;;;;;;5054209;28;20214;-63
2022/03/11 05:16:26;;;;;;;1.50;1.40;;;3.80;99.90;;;;;;5054170;28;20236;-63
2022/03/11 05:18:54;;;;;;;1.60;1.50;;;3.70;99.90;;;;;;5054535;28;20281;-63
2022/03/11 05:21:21;;;;;;;1.30;1.30;;;3.80;99.90;;;;;;5053576;28;20210;-63
2022/03/11 05:23:48;;;;;;;1.50;1.40;;;3.90;99.90;;;;;;5053935;28;20239;-63
2022/03/11 05:26:25;;;;;;;1.50;1.50;;;4.00;99.90;;;;;;5053398;28;20260;-62
2022/03/11 05:28:53;;;;;;;1.80;1.70;;;3.90;99.90;;;;;;5054122;28;20183;-63
2022/03/11 05:31:20;;;;;;;1.65;1.55;;;3.80;99.90;;;;;;5052451;28;20678;-63
2022/03/11 05:33:49;;;;;;;2.00;1.90;;;3.80;99.90;;;;;;5052877;28;20258;-63
2022/03/11 05:36:16;;;;;;;1.70;1.60;;;3.70;99.90;;;;;;5056008;28;20583;-62
2022/03/11 05:38:43;;;;;;;1.70;1.60;;;3.60;99.90;;;;;;5073494;28;20313;-62
2022/03/11 05:41:10;;;;;;;1.67;1.58;;;3.60;99.90;;;;;;5073632;28;20282;-62
2022/03/11 05:43:37;;;;;;;1.50;1.40;;;3.60;99.90;;;;;;5074711;28;20249;-64
2022/03/11 05:46:04;;;;;;;1.80;1.70;;;3.50;99.90;;;;;;5074930;28;20305;-63
2022/03/11 05:48:32;;;;;;;1.40;1.40;;;3.50;99.90;;;;;;5074345;28;20726;-62
2022/03/11 05:51:00;;;;;;;1.70;1.60;;;3.40;99.90;;;;;;5074271;28;20396;-66
2022/03/11 05:53:27;;;;;;;1.88;1.73;;;3.30;99.90;;;;;;5077638;28;20665;-63
2022/03/11 05:55:54;;;;;;;1.80;1.70;;;3.30;99.90;;;;;;5073172;28;20222;-63
2022/03/11 05:58:21;;;;;;;1.67;1.58;;;3.30;99.90;;;;;;5072598;28;20251;-64
2022/03/11 06:00:49;;;;;;;1.92;1.75;;;3.20;99.90;;;;;;5058475;28;20210;-64
2022/03/11 06:03:16;;;;;;;1.52;1.50;;;3.10;99.90;;;;;;5071532;28;20207;-61
2022/03/11 06:05:43;;;;;;;1.75;1.65;;;3.00;99.90;;;;;;5068719;28;20221;-63
2022/03/11 06:08:11;;;;;;;1.93;1.83;;;3.00;99.90;;;;;;5068588;28;20205;-64
2022/03/11 06:10:38;;;;;;;1.50;1.50;;;2.90;99.90;;;;;;5071179;28;20207;-64
2022/03/11 06:13:05;;;;;;;1.75;1.65;;;2.90;99.90;;;;;;5070813;28;20290;-63
2022/03/11 06:15:32;;;;;;;1.70;1.60;;;2.90;99.90;;;;;;5085550;28;20219;-63
2022/03/11 06:17:58;;;;;;;1.98;1.88;;;2.90;99.90;;;;;;5076855;28;20219;-63
2022/03/11 06:20:29;;;;;;;2.08;1.83;;;2.90;99.90;;;;;;5071609;28;20274;-64
2022/03/11 06:22:56;;;;;;;2.13;2.03;;;3.00;99.90;;;;;;5069155;28;20245;-64
2022/03/11 06:25:24;;;;;;;2.15;2.05;;;3.10;99.90;;;;;;5071303;28;20719;-61
2022/03/11 06:27:51;;;;;;;2.35;1.80;;;3.10;99.90;;;;;;5072271;28;20234;-62
2022/03/11 06:30:18;;;;;;;1.90;1.80;;;3.20;99.90;;;;;;5071068;28;20203;-64
2022/03/11 06:32:47;;;;;;;1.92;1.83;;;3.20;99.90;;;;;;5071304;28;20294;-63
2022/03/11 06:35:15;;;;;;;1.70;1.60;;;3.10;99.90;;;;;;5070935;28;20227;-63
2022/03/11 06:37:43;;;;;;;1.80;1.70;;;3.00;99.90;;;;;;5070592;28;20632;-62
2022/03/11 06:40:10;;;;;;;1.75;1.65;;;2.90;99.90;;;;;;5070929;28;20207;-62
2022/03/11 06:42:41;;;;;;;1.42;1.42;;;2.90;99.90;;;;;;5070503;28;20291;-62
2022/03/11 06:45:09;;;;;;;1.90;1.80;;;3.00;99.90;;;;;;5068356;28;20310;-62
2022/03/11 06:47:36;;;;;;;1.70;1.60;;;3.00;99.90;;;;;;5068616;28;20298;-62
2022/03/11 06:50:04;;;;;;;1.80;1.70;;;3.10;99.90;;;;;;5069381;28;20337;-63
2022/03/11 06:52:31;;;;;;;1.80;1.70;;;3.10;99.90;;;;;;5071176;28;20203;-62
2022/03/11 06:54:58;;;;;;;1.87;1.77;;;3.20;99.90;;;;;;5069893;28;20229;-63
2022/03/11 06:57:25;;;;;;;1.75;1.65;;;3.30;99.90;;;;;;5074095;28;20598;-62
2022/03/11 06:59:54;;;;;;;1.85;1.75;;;3.40;99.90;;;;;;5077346;28;20313;-63
2022/03/11 07:02:20;;;;;;;1.80;1.70;;;3.60;99.90;;;;;;5078520;28;20298;-63
2022/03/11 07:04:47;;;;;;;1.70;1.60;;;3.70;99.90;;;;;;5076442;28;20223;-64
2022/03/11 07:07:14;;;;;;;1.90;1.80;;;3.90;99.90;;;;;;5074157;28;20290;-63
2022/03/11 07:09:41;;;;;;;2.10;1.90;;;4.10;99.90;;;;;;5074023;28;20290;-63
2022/03/11 07:12:09;;;;;;;1.73;1.55;;;4.30;99.90;;;;;;5073830;28;20331;-62
2022/03/11 07:14:37;;;;;;;1.90;1.80;;;4.50;99.90;;;;;;5073719;28;20306;-63
2022/03/11 07:17:05;;;;;;;2.40;2.30;;;4.60;99.90;;;;;;5074076;28;20298;-62
2022/03/11 07:19:32;;;;;;;1.90;1.80;;;4.70;99.90;;;;;;5073970;28;20223;-62
2022/03/11 07:22:01;;;;;;;2.47;2.38;;;4.80;99.90;;;;;;5061544;28;20543;-62
2022/03/11 07:24:29;;;;;;;2.50;2.20;;;5.00;99.90;;;;;;5068152;28;20235;-63
2022/03/11 07:26:58;;;;;;;2.20;2.08;;;5.10;99.90;;;;;;5074333;28;20234;-62
2022/03/11 07:29:25;;;;;;;2.35;2.20;;;5.30;99.90;;;;;;5074459;28;20196;-65
2022/03/11 07:31:52;;;;;;;2.70;2.60;;;5.30;99.90;;;;;;5053497;28;20296;-63
2022/03/11 07:34:23;;;;;;;2.80;2.60;;;5.30;99.90;;;;;;5053778;28;20312;-63
2022/03/11 07:36:51;;;;;;;2.38;2.28;;;5.30;99.90;;;;;;5072200;28;20685;-63
2022/03/11 07:39:17;;;;;;;2.50;2.40;;;5.20;99.90;;;;;;5072018;28;20290;-63
2022/03/11 07:41:44;;;;;;;2.67;2.47;;;5.10;99.90;;;;;;5072886;28;20243;-62
2022/03/11 07:44:13;;;;;;;2.15;2.05;;;5.10;99.90;;;;;;5074418;28;20199;-62
2022/03/11 07:46:40;;;;;;;2.88;2.67;;;5.00;99.90;;;;;;5068374;28;20250;-62
2022/03/11 07:49:07;;;;;;;2.27;2.17;;;5.00;99.90;;;;;;5074623;28;20287;-63
2022/03/11 07:51:35;;;;;;;2.47;2.28;;;4.90;99.90;;;;;;5073345;28;20230;-63
2022/03/11 07:54:02;;;;;;;2.80;2.60;;;5.00;99.90;;;;;;5073440;28;20234;-63
2022/03/11 07:56:29;;;;;;;2.30;2.17;;;5.00;99.90;;;;;;5072798;28;20265;-63
2022/03/11 07:58:57;;;;;;;2.20;2.10;;;5.10;99.90;;;;;;5072473;28;20277;-63
2022/03/11 08:01:24;;;;;;;2.50;2.30;;;5.20;99.90;;;;;;5072992;28;20210;-63
2022/03/11 08:03:51;;;;;;;2.30;2.10;;;5.20;99.90;;;;;;5072866;28;20207;-61
2022/03/11 08:06:17;;;;;;;2.10;2.00;;;5.30;99.90;;;;;;5073252;28;20227;-63
2022/03/11 08:08:46;;;;;;;2.40;2.30;;;5.40;99.90;;;;;;5073718;28;20620;-62
2022/03/11 08:11:14;;;;;;;2.53;2.42;;;5.50;99.90;;;;;;5074003;28;20204;-62
2022/03/11 08:13:41;;;;;;;2.53;2.33;;;5.60;99.90;;;;;;5073582;28;20207;-62
2022/03/11 08:16:07;;;;;;;2.80;2.70;;;5.60;99.90;;;;;;5072012;28;20255;-62
2022/03/11 08:18:35;;;;;;;2.70;2.50;;;5.60;99.90;;;;;;5072047;28;20584;-63
2022/03/11 08:21:03;;;;;;;2.30;2.20;;;5.70;99.90;;;;;;5072331;28;20265;-63
2022/03/11 08:23:30;;;;;;;2.38;2.28;;;5.90;99.90;;;;;;5073632;28;20213;-64
2022/03/11 08:25:58;;;;;;;2.60;2.40;;;6.10;99.90;;;;;;5073684;28;20270;-63
2022/03/11 08:28:25;;;;;;;2.58;2.40;;;6.20;99.90;;;;;;5072739;28;20290;-63
2022/03/11 08:30:53;;;;;;;2.50;2.40;;;6.30;99.90;;;;;;5074603;28;20211;-62
2022/03/11 08:33:22;;;;;;;2.72;2.53;;;6.50;99.90;;;;;;5072452;28;20207;-62
2022/03/11 08:35:49;;;;;;;2.53;2.40;;;6.50;99.90;;;;;;5072506;28;20587;-64
2022/03/11 08:38:16;;;;;;;2.75;2.55;;;6.60;99.90;;;;;;5072239;28;20213;-63
2022/03/11 08:40:43;;;;;;;2.30;2.20;;;6.70;99.90;;;;;;5072142;28;20209;-63
2022/03/11 08:43:11;;;;;;;3.10;2.60;;;7.00;99.90;;;;;;5072306;28;20729;-62
2022/03/11 08:45:38;;;;;;;2.60;2.50;;;7.20;99.90;;;;;;5072081;28;20314;-63
2022/03/11 08:48:06;;;;;;;2.13;2.03;;;7.20;99.90;;;;;;5072097;28;20678;-62
2022/03/11 08:50:34;;;;;;;2.88;2.40;;;7.40;99.90;;;;;;5072522;28;20580;-62
2022/03/11 08:53:01;;;;;;;2.47;2.38;;;7.60;99.90;;;;;;5072680;28;20867;-62
2022/03/11 08:55:28;;;;;;;2.95;2.75;;;7.50;99.90;;;;;;5072185;28;20315;-64
2022/03/11 08:57:55;;;;;;;2.40;2.20;;;7.70;99.90;;;;;;5072216;28;20257;-63
2022/03/11 09:00:25;;;;;;;2.23;2.13;;;7.80;99.90;;;;;;5072206;28;20595;-62
2022/03/11 09:02:52;;;;;;;2.33;2.23;;;8.00;99.90;;;;;;5072318;28;20214;-63
2022/03/11 09:05:20;;;;;;;2.30;2.20;;;8.10;99.90;;;;;;5071935;28;20223;-65
2022/03/11 09:07:49;;;;;;;2.20;2.10;;;8.20;99.90;;;;;;5071870;28;20293;-64
2022/03/11 09:10:17;;;;;;;2.50;2.40;;;8.40;99.90;;;;;;5072290;28;20211;-63
2022/03/11 09:12:45;;;;;;;2.57;2.40;;;8.40;99.90;;;;;;5071840;28;20719;-64
2022/03/11 09:15:13;;;;;;;2.23;2.13;;;8.60;99.90;;;;;;5071996;28;20250;-64
2022/03/11 09:17:44;;;;;;;2.33;2.20;;;8.60;99.90;;;;;;5075685;28;20271;-63
2022/03/11 09:20:12;;;;;;;2.40;2.30;;;8.60;99.90;;;;;;5070005;28;20231;-64
2022/03/11 09:22:40;;;;;;;3.03;2.25;;;9.00;99.90;;;;;;5069600;28;20227;-65
2022/03/11 09:25:08;;;;;;;2.35;2.22;;;9.00;99.90;;;;;;5069199;28;20235;-62
2022/03/11 09:27:35;;;;;;;4.97;2.80;;;9.10;99.90;;;;;;5074980;28;20231;-63
2022/03/11 09:30:03;;;;;;;2.28;2.17;;;9.30;99.90;;;;;;5072262;28;20282;-62
2022/03/11 09:32:30;;;;;;;2.42;2.33;;;9.30;99.90;;;;;;5077499;28;20210;-62
2022/03/11 09:34:59;;;;;;;2.50;2.40;;;9.20;99.90;;;;;;5073279;28;20251;-64
2022/03/11 09:37:27;;;;;;;2.40;2.30;;;9.20;99.90;;;;;;5071507;28;20187;-64
2022/03/11 09:39:54;;;;;;;5.10;4.80;;;9.40;99.90;;;;;;5070643;28;20231;-62
2022/03/11 09:42:21;;;;;;;2.60;2.40;;;9.60;99.90;;;;;;5070492;28;20622;-63
2022/03/11 09:44:52;;;;;;;2.20;2.10;;;9.70;99.90;;;;;;5070551;28;20226;-63
2022/03/11 09:47:20;;;;;;;2.78;2.55;;;9.70;99.90;;;;;;5070908;28;20576;-63
2022/03/11 09:49:47;;;;;;;2.30;2.20;;;9.80;99.90;;;;;;5071136;28;20630;-62
2022/03/11 09:52:17;;;;;;;2.53;2.43;;;9.90;99.90;;;;;;5071025;28;20291;-63
2022/03/11 09:54:45;;;;;;;2.38;2.28;;;10.00;99.90;;;;;;5070717;28;20332;-63
2022/03/11 09:57:12;;;;;;;2.30;2.20;;;10.00;99.90;;;;;;5063531;28;20212;-63
2022/03/11 09:59:39;;;;;;;2.90;2.70;;;10.20;99.90;;;;;;5068849;28;20673;-63
2022/03/11 10:02:13;;;;;;;2.47;2.38;;;10.20;99.90;;;;;;5071050;28;20613;-64
2022/03/11 10:04:47;;;;;;;2.45;2.35;;;10.10;99.90;;;;;;5061748;28;20234;-63
2022/03/11 10:07:23;;;;;;;3.03;2.83;;;10.30;99.90;;;;;;5070052;28;20203;-64
2022/03/11 10:09:50;;;;;;;2.85;2.60;;;10.10;99.90;;;;;;5066710;28;20753;-65
2022/03/11 10:12:25;;;;;;;2.90;2.70;;;10.10;99.90;;;;;;5069511;28;20234;-64
2022/03/11 10:14:58;;;;;;;2.43;2.33;;;10.00;99.90;;;;;;5065514;28;20298;-64
2022/03/11 10:17:25;;;;;;;2.58;2.45;;;10.10;99.90;;;;;;5070326;28;20223;-64
2022/03/11 10:20:03;;;;;;;2.38;2.28;;;10.40;99.90;;;;;;5072986;28;20471;-63
2022/03/11 10:22:32;;;;;;;2.43;2.30;;;10.50;99.90;;;;;;5080422;28;20214;-62
2022/03/11 10:25:07;;;;;;;2.40;2.30;;;10.70;99.90;;;;;;5074241;28;20280;-63
2022/03/11 10:27:54;;;;;;;2.80;2.60;;;10.80;99.90;;;;;;5065267;28;20203;-62
2022/03/11 10:30:22;;;;;;;2.47;2.38;;;10.70;99.90;;;;;;5057058;28;20265;-64
2022/03/11 10:32:50;;;;;;;2.90;2.70;;;10.80;99.90;;;;;;5077273;28;20210;-64
2022/03/11 10:35:19;;;;;;;2.70;2.60;;;10.70;99.90;;;;;;5077990;28;20229;-62
2022/03/11 10:38:03;;;;;;;2.83;2.67;;;10.90;99.90;;;;;;5073909;28;20665;-63
2022/03/11 10:40:32;;;;;;;3.00;2.90;;;11.10;99.90;;;;;;5071582;28;20241;-63
2022/03/11 10:43:13;;;;;;;3.00;2.80;;;11.20;99.90;;;;;;5070179;28;20314;-64
2022/03/11 10:45:52;;;;;;;2.58;2.45;;;11.40;99.90;;;;;;5072612;28;20223;-63
2022/03/11 10:48:40;;;;;;;2.90;2.70;;;11.50;99.90;;;;;;5073790;28;20286;-62
2022/03/11 10:51:11;;;;;;;2.30;2.20;;;11.60;99.90;;;;;;5072714;28;20634;-63
2022/03/11 10:53:40;;;;;;;2.88;2.67;;;11.70;99.90;;;;;;5073650;28;20298;-63
2022/03/11 10:56:09;;;;;;;2.80;2.60;;;11.80;99.90;;;;;;5073952;28;20223;-65
2022/03/11 10:58:36;;;;;;;2.50;2.40;;;11.80;99.90;;;;;;5073183;28;20254;-62
2022/03/11 11:01:03;;;;;;;2.33;2.22;;;11.90;99.90;;;;;;5072684;28;20276;-62
2022/03/11 11:03:32;;;;;;;2.90;2.70;;;12.00;99.90;;;;;;5068974;28;20275;-63
2022/03/11 11:06:00;;;;;;;2.47;2.38;;;12.20;99.90;;;;;;5061459;28;20231;-62
2022/03/11 11:08:28;;;;;;;2.60;2.40;;;12.20;99.90;;;;;;5060282;28;20241;-63
2022/03/11 11:10:57;;;;;;;4.97;3.33;;;12.20;99.90;;;;;;5059351;28;20688;-63
2022/03/11 11:13:25;;;;;;;2.60;2.50;;;12.20;99.90;;;;;;5067702;28;20200;-63
2022/03/11 11:15:55;;;;;;;2.45;2.30;;;12.30;99.90;;;;;;5072343;28;20709;-62
2022/03/11 11:18:25;;;;;;;2.67;2.47;;;12.40;99.90;;;;;;5073157;28;20271;-64
2022/03/11 11:20:54;;;;;;;3.20;2.53;;;12.40;99.90;;;;;;5072289;28;20218;-64
2022/03/11 11:23:25;;;;;;;2.47;2.28;;;12.40;99.90;;;;;;5071939;28;20584;-62
2022/03/11 11:25:53;;;;;;;2.42;2.33;;;12.70;99.90;;;;;;5072997;28;20724;-63
2022/03/11 11:31:02;;;;;;;2.60;2.50;;;13.10;99.90;;;;;;5026430;28;20300;-64
2022/03/11 11:33:29;;;;;;;2.50;2.40;;;13.10;99.90;;;;;;5024809;28;20209;-62
2022/03/11 11:36:01;;;;;;;2.50;2.40;;;13.20;99.90;;;;;;5023886;28;20212;-64
2022/03/11 11:38:35;;;;;;;2.40;2.30;;;13.00;99.40;;;;;;5012307;28;20342;-63
2022/03/11 11:41:22;;;;;;;2.53;2.33;;;13.20;99.50;;;;;;4993094;28;20226;-63
2022/03/11 11:43:55;;;;;;;2.47;2.30;;;13.20;99.50;;;;;;5001406;28;20194;-63
2022/03/11 11:46:22;;;;;;;2.78;2.60;;;13.20;99.80;;;;;;5002631;28;20198;-61
2022/03/11 11:49:22;;;;;;;2.55;2.45;;;13.40;99.50;;;;;;5009876;28;20229;-61
2022/03/11 11:52:00;;;;;;;2.45;2.35;;;13.40;99.10;;;;;;4994127;28;20253;-60
2022/03/11 11:54:35;;;;;;;2.63;2.45;;;13.40;99.90;;;;;;4993176;28;20206;-60
2022/03/11 11:57:02;;;;;;;2.67;2.57;;;13.60;99.90;;;;;;4993498;28;20213;-62
2022/03/11 11:59:35;;;;;;;2.70;2.50;;;13.50;99.90;;;;;;5000483;28;20719;-61
2022/03/11 12:02:04;;;;;;;2.80;2.60;;;13.50;99.50;;;;;;5006728;28;20185;-63
2022/03/11 12:04:33;;;;;;;2.70;2.60;;;13.50;99.60;;;;;;4996178;28;20661;-63
2022/03/11 12:07:02;;;;;;;2.40;2.30;;;13.60;99.90;;;;;;5003693;28;20201;-63
2022/03/11 12:09:47;;;;;;;2.80;2.70;;;13.70;99.70;;;;;;5004346;28;20221;-62
2022/03/11 12:12:55;;;;;;;2.80;2.60;;;13.70;99.50;;;;;;5012634;28;20248;-62
2022/03/11 12:15:24;;;;;;;2.50;2.40;;;13.70;99.70;;;;;;5006127;28;20659;-61
2022/03/11 12:17:55;;;;;;;2.90;2.70;;;13.70;99.30;;;;;;5004588;28;20347;-62
2022/03/11 12:20:45;;;;;;;2.67;2.58;;;13.90;99.60;;;;;;5012398;28;20326;-61
2022/03/11 12:23:19;;;;;;;2.70;2.50;;;14.00;99.70;;;;;;5012312;28;20728;-61
2022/03/11 12:25:48;;;;;;;2.95;2.78;;;14.00;99.10;;;;;;5012677;28;20296;-61
2022/03/11 12:28:17;;;;;;;3.10;2.90;;;14.20;99.40;;;;;;5012468;28;20201;-61
2022/03/11 12:30:55;;;;;;;2.83;2.72;;;14.20;98.00;;;;;;5011778;28;20263;-61
2022/03/11 12:33:26;;;;;;;3.33;3.13;;;14.20;98.70;;;;;;5012043;28;20645;-62
2022/03/11 12:35:55;;;;;;;3.63;3.42;;;14.20;98.30;;;;;;5013256;28;20190;-61
2022/03/11 12:38:25;;;;;;;2.85;2.75;;;14.40;98.80;;;;;;5011257;28;20296;-61
2022/03/11 12:40:53;;;;;;;7.13;6.72;;;14.30;98.50;;;;;;5012018;28;20228;-61
2022/03/11 12:43:22;;;;;;;3.40;3.20;;;14.20;99.00;;;;;;5011869;28;20256;-62
2022/03/11 12:45:51;;;;;;;6.97;6.57;;;14.30;99.00;;;;;;5005636;28;20289;-62
2022/03/11 12:48:20;;;;;;;5.28;4.90;;;14.40;99.50;;;;;;5000251;28;20296;-61
2022/03/11 12:50:49;;;;;;;3.60;3.40;;;14.50;99.50;;;;;;5003319;28;20686;-61
2022/03/11 12:53:17;;;;;;;2.95;2.85;;;14.60;99.70;;;;;;5002464;28;20377;-61
2022/03/11 12:55:45;;;;;;;3.10;2.90;;;14.70;99.70;;;;;;4998264;28;20252;-61
2022/03/11 12:58:15;;;;;;;3.50;3.30;;;14.70;99.80;;;;;;5004742;28;20319;-62
2022/03/11 13:00:44;;;;;;;3.42;3.22;;;14.60;99.50;;;;;;5001932;28;20221;-63
2022/03/11 13:03:13;;;;;;;3.03;2.80;;;14.60;99.70;;;;;;4992902;28;20279;-62
2022/03/11 13:05:42;;;;;;;2.90;2.70;;;14.60;99.70;;;;;;4993708;28;20268;-63